sensor_id;sensor_type;location;lat;lon;timestamp;temperature;humidity
84114;DHT22;74483;48.846;2.358;2024-02-14T00:02:11;23.50;22.10
84114;DHT22;74483;48.846;2.358;2024-02-14T00:04:37;23.50;22.20
84114;DHT22;74483;48.846;2.358;2024-02-14T00:07:04;23.50;22.20
84114;DHT22;74483;48.846;2.358;2024-02-14T00:09:30;23.50;22.20
84114;DHT22;74483;48.846;2.358;2024-02-14T00:11:56;23.50;22.20
84114;DHT22;74483;48.846;2.358;2024-02-14T00:14:22;23.50;22.20
84114;DHT22;74483;48.846;2.358;2024-02-14T00:16:47;23.50;22.20
84114;DHT22;74483;48.846;2.358;2024-02-14T00:19:13;23.50;22.20
84114;DHT22;74483;48.846;2.358;2024-02-14T00:21:39;23.50;22.20
84114;DHT22;74483;48.846;2.358;2024-02-14T00:24:05;23.50;22.20
84114;DHT22;74483;48.846;2.358;2024-02-14T00:26:31;23.50;22.30
84114;DHT22;74483;48.846;2.358;2024-02-14T00:28:57;23.50;22.30
84114;DHT22;74483;48.846;2.358;2024-02-14T00:31:22;23.50;22.30
84114;DHT22;74483;48.846;2.358;2024-02-14T00:33:48;23.50;22.30
84114;DHT22;74483;48.846;2.358;2024-02-14T00:36:13;23.50;22.30
84114;DHT22;74483;48.846;2.358;2024-02-14T00:38:39;23.50;22.30
84114;DHT22;74483;48.846;2.358;2024-02-14T00:41:04;23.50;22.40
84114;DHT22;74483;48.846;2.358;2024-02-14T00:43:30;23.50;22.40
84114;DHT22;74483;48.846;2.358;2024-02-14T00:45:56;23.50;22.40
84114;DHT22;74483;48.846;2.358;2024-02-14T00:48:22;23.50;22.40
84114;DHT22;74483;48.846;2.358;2024-02-14T00:50:48;23.50;22.50
84114;DHT22;74483;48.846;2.358;2024-02-14T00:53:14;23.50;22.50
84114;DHT22;74483;48.846;2.358;2024-02-14T00:55:39;23.40;22.40
84114;DHT22;74483;48.846;2.358;2024-02-14T00:58:05;23.40;22.40
84114;DHT22;74483;48.846;2.358;2024-02-14T01:00:31;23.50;22.50
84114;DHT22;74483;48.846;2.358;2024-02-14T01:02:59;23.40;22.40
84114;DHT22;74483;48.846;2.358;2024-02-14T01:05:25;23.40;22.50
84114;DHT22;74483;48.846;2.358;2024-02-14T01:07:51;23.40;22.40
84114;DHT22;74483;48.846;2.358;2024-02-14T01:10:19;23.40;22.50
84114;DHT22;74483;48.846;2.358;2024-02-14T01:12:45;23.40;22.50
84114;DHT22;74483;48.846;2.358;2024-02-14T01:15:10;23.40;22.50
84114;DHT22;74483;48.846;2.358;2024-02-14T01:17:36;23.40;22.50
84114;DHT22;74483;48.846;2.358;2024-02-14T01:20:04;23.40;22.60
84114;DHT22;74483;48.846;2.358;2024-02-14T01:22:30;23.40;22.60
84114;DHT22;74483;48.846;2.358;2024-02-14T01:24:55;23.40;22.60
84114;DHT22;74483;48.846;2.358;2024-02-14T01:27:21;23.40;22.60
84114;DHT22;74483;48.846;2.358;2024-02-14T01:29:48;23.40;22.60
84114;DHT22;74483;48.846;2.358;2024-02-14T01:32:14;23.40;22.60
84114;DHT22;74483;48.846;2.358;2024-02-14T01:34:39;23.40;22.60
84114;DHT22;74483;48.846;2.358;2024-02-14T01:37:08;23.40;22.70
84114;DHT22;74483;48.846;2.358;2024-02-14T01:39:35;23.40;22.80
84114;DHT22;74483;48.846;2.358;2024-02-14T01:42:01;23.40;22.70
84114;DHT22;74483;48.846;2.358;2024-02-14T01:44:26;23.40;22.70
84114;DHT22;74483;48.846;2.358;2024-02-14T01:46:52;23.40;22.80
84114;DHT22;74483;48.846;2.358;2024-02-14T01:49:18;23.40;22.80
84114;DHT22;74483;48.846;2.358;2024-02-14T01:51:45;23.40;22.80
84114;DHT22;74483;48.846;2.358;2024-02-14T01:54:12;23.40;22.80
84114;DHT22;74483;48.846;2.358;2024-02-14T01:56:39;23.40;22.80
84114;DHT22;74483;48.846;2.358;2024-02-14T01:59:05;23.40;22.80
84114;DHT22;74483;48.846;2.358;2024-02-14T02:01:32;23.40;22.90
84114;DHT22;74483;48.846;2.358;2024-02-14T02:03:59;23.40;22.90
84114;DHT22;74483;48.846;2.358;2024-02-14T02:06:25;23.40;22.90
84114;DHT22;74483;48.846;2.358;2024-02-14T02:08:51;23.30;22.90
84114;DHT22;74483;48.846;2.358;2024-02-14T02:11:17;23.40;23.00
84114;DHT22;74483;48.846;2.358;2024-02-14T02:13:43;23.40;22.90
84114;DHT22;74483;48.846;2.358;2024-02-14T02:16:09;23.40;23.00
84114;DHT22;74483;48.846;2.358;2024-02-14T02:18:34;23.30;23.00
84114;DHT22;74483;48.846;2.358;2024-02-14T02:21:00;23.40;23.00
84114;DHT22;74483;48.846;2.358;2024-02-14T02:23:29;23.30;23.00
84114;DHT22;74483;48.846;2.358;2024-02-14T02:25:55;23.40;23.00
84114;DHT22;74483;48.846;2.358;2024-02-14T02:28:21;23.40;23.00
84114;DHT22;74483;48.846;2.358;2024-02-14T02:30:46;23.30;23.00
84114;DHT22;74483;48.846;2.358;2024-02-14T02:33:12;23.30;23.10
84114;DHT22;74483;48.846;2.358;2024-02-14T02:35:41;23.40;23.10
84114;DHT22;74483;48.846;2.358;2024-02-14T02:38:07;23.30;23.10
84114;DHT22;74483;48.846;2.358;2024-02-14T02:40:33;23.30;23.20
84114;DHT22;74483;48.846;2.358;2024-02-14T02:42:58;23.30;23.20
84114;DHT22;74483;48.846;2.358;2024-02-14T02:45:25;23.30;23.20
84114;DHT22;74483;48.846;2.358;2024-02-14T02:47:51;23.30;23.20
84114;DHT22;74483;48.846;2.358;2024-02-14T02:50:17;23.30;23.20
84114;DHT22;74483;48.846;2.358;2024-02-14T02:52:43;23.30;23.30
84114;DHT22;74483;48.846;2.358;2024-02-14T02:55:08;23.30;23.30
84114;DHT22;74483;48.846;2.358;2024-02-14T02:57:34;23.30;23.30
84114;DHT22;74483;48.846;2.358;2024-02-14T03:00:03;23.30;23.30
84114;DHT22;74483;48.846;2.358;2024-02-14T03:02:30;23.30;23.30
84114;DHT22;74483;48.846;2.358;2024-02-14T03:04:56;23.30;23.40
84114;DHT22;74483;48.846;2.358;2024-02-14T03:07:22;23.30;23.30
84114;DHT22;74483;48.846;2.358;2024-02-14T03:09:49;23.30;23.40
84114;DHT22;74483;48.846;2.358;2024-02-14T03:12:14;23.30;23.40
84114;DHT22;74483;48.846;2.358;2024-02-14T03:14:44;23.30;23.40
84114;DHT22;74483;48.846;2.358;2024-02-14T03:17:09;23.30;23.40
84114;DHT22;74483;48.846;2.358;2024-02-14T03:19:35;23.30;23.50
84114;DHT22;74483;48.846;2.358;2024-02-14T03:22:04;23.20;23.40
84114;DHT22;74483;48.846;2.358;2024-02-14T03:24:31;23.30;23.50
84114;DHT22;74483;48.846;2.358;2024-02-14T03:26:57;23.20;23.50
84114;DHT22;74483;48.846;2.358;2024-02-14T03:29:22;23.20;23.50
84114;DHT22;74483;48.846;2.358;2024-02-14T03:31:48;23.20;23.50
84114;DHT22;74483;48.846;2.358;2024-02-14T03:34:14;23.30;23.60
84114;DHT22;74483;48.846;2.358;2024-02-14T03:36:40;23.30;23.60
84114;DHT22;74483;48.846;2.358;2024-02-14T03:39:06;23.20;23.50
84114;DHT22;74483;48.846;2.358;2024-02-14T03:41:32;23.30;23.70
84114;DHT22;74483;48.846;2.358;2024-02-14T03:43:58;23.20;23.60
84114;DHT22;74483;48.846;2.358;2024-02-14T03:46:27;23.20;23.60
84114;DHT22;74483;48.846;2.358;2024-02-14T03:48:56;23.20;23.60
84114;DHT22;74483;48.846;2.358;2024-02-14T03:51:24;23.20;23.70
84114;DHT22;74483;48.846;2.358;2024-02-14T03:53:50;23.20;23.70
84114;DHT22;74483;48.846;2.358;2024-02-14T03:56:16;23.20;23.70
84114;DHT22;74483;48.846;2.358;2024-02-14T03:58:42;23.20;23.70
84114;DHT22;74483;48.846;2.358;2024-02-14T04:01:07;23.20;23.70
84114;DHT22;74483;48.846;2.358;2024-02-14T04:03:34;23.20;23.70
84114;DHT22;74483;48.846;2.358;2024-02-14T04:06:00;23.20;23.80
84114;DHT22;74483;48.846;2.358;2024-02-14T04:08:26;23.20;23.80
84114;DHT22;74483;48.846;2.358;2024-02-14T04:10:51;23.20;23.80
84114;DHT22;74483;48.846;2.358;2024-02-14T04:13:19;23.20;23.80
84114;DHT22;74483;48.846;2.358;2024-02-14T04:15:45;23.20;23.90
84114;DHT22;74483;48.846;2.358;2024-02-14T04:18:12;23.20;23.90
84114;DHT22;74483;48.846;2.358;2024-02-14T04:20:37;23.20;23.90
84114;DHT22;74483;48.846;2.358;2024-02-14T04:23:03;23.20;23.90
84114;DHT22;74483;48.846;2.358;2024-02-14T04:25:32;23.20;23.90
84114;DHT22;74483;48.846;2.358;2024-02-14T04:27:57;23.20;23.90
84114;DHT22;74483;48.846;2.358;2024-02-14T04:30:25;23.20;23.90
84114;DHT22;74483;48.846;2.358;2024-02-14T04:32:50;23.20;24.00
84114;DHT22;74483;48.846;2.358;2024-02-14T04:35:19;23.10;24.00
84114;DHT22;74483;48.846;2.358;2024-02-14T04:37:45;23.20;24.00
84114;DHT22;74483;48.846;2.358;2024-02-14T04:40:12;23.10;24.00
84114;DHT22;74483;48.846;2.358;2024-02-14T04:42:38;23.10;24.10
84114;DHT22;74483;48.846;2.358;2024-02-14T04:45:04;23.10;24.10
84114;DHT22;74483;48.846;2.358;2024-02-14T04:47:29;23.10;24.10
84114;DHT22;74483;48.846;2.358;2024-02-14T04:49:55;23.10;24.10
84114;DHT22;74483;48.846;2.358;2024-02-14T04:52:21;23.20;24.20
84114;DHT22;74483;48.846;2.358;2024-02-14T04:54:46;23.10;24.20
84114;DHT22;74483;48.846;2.358;2024-02-14T04:57:12;23.10;24.20
84114;DHT22;74483;48.846;2.358;2024-02-14T04:59:38;23.10;24.20
84114;DHT22;74483;48.846;2.358;2024-02-14T05:02:04;23.10;24.20
84114;DHT22;74483;48.846;2.358;2024-02-14T05:04:29;23.10;24.20
84114;DHT22;74483;48.846;2.358;2024-02-14T05:06:55;23.10;24.30
84114;DHT22;74483;48.846;2.358;2024-02-14T05:09:21;23.10;24.30
84114;DHT22;74483;48.846;2.358;2024-02-14T05:11:47;23.10;24.40
84114;DHT22;74483;48.846;2.358;2024-02-14T05:14:12;23.10;24.30
84114;DHT22;74483;48.846;2.358;2024-02-14T05:16:38;23.10;24.40
84114;DHT22;74483;48.846;2.358;2024-02-14T05:19:03;23.10;24.40
84114;DHT22;74483;48.846;2.358;2024-02-14T05:21:29;23.10;24.40
84114;DHT22;74483;48.846;2.358;2024-02-14T05:23:55;23.10;24.40
84114;DHT22;74483;48.846;2.358;2024-02-14T05:26:20;23.10;24.40
84114;DHT22;74483;48.846;2.358;2024-02-14T05:28:46;23.10;24.40
84114;DHT22;74483;48.846;2.358;2024-02-14T05:31:12;23.10;24.50
84114;DHT22;74483;48.846;2.358;2024-02-14T05:33:37;23.10;24.50
84114;DHT22;74483;48.846;2.358;2024-02-14T05:36:03;23.10;24.50
84114;DHT22;74483;48.846;2.358;2024-02-14T05:38:28;23.00;24.50
84114;DHT22;74483;48.846;2.358;2024-02-14T05:40:55;23.10;25.20
84114;DHT22;74483;48.846;2.358;2024-02-14T05:43:21;23.10;24.60
84114;DHT22;74483;48.846;2.358;2024-02-14T05:45:47;23.00;24.50
84114;DHT22;74483;48.846;2.358;2024-02-14T05:48:12;23.00;24.50
84114;DHT22;74483;48.846;2.358;2024-02-14T05:50:40;23.00;24.50
84114;DHT22;74483;48.846;2.358;2024-02-14T05:53:05;23.10;24.60
84114;DHT22;74483;48.846;2.358;2024-02-14T05:55:31;23.10;24.60
84114;DHT22;74483;48.846;2.358;2024-02-14T05:57:57;23.00;24.60
84114;DHT22;74483;48.846;2.358;2024-02-14T06:00:25;23.10;24.70
84114;DHT22;74483;48.846;2.358;2024-02-14T06:02:50;23.00;24.60
84114;DHT22;74483;48.846;2.358;2024-02-14T06:05:16;23.00;24.60
84114;DHT22;74483;48.846;2.358;2024-02-14T06:07:42;23.00;24.60
84114;DHT22;74483;48.846;2.358;2024-02-14T06:10:10;23.10;24.70
84114;DHT22;74483;48.846;2.358;2024-02-14T06:12:36;23.00;24.70
84114;DHT22;74483;48.846;2.358;2024-02-14T06:15:02;23.00;24.70
84114;DHT22;74483;48.846;2.358;2024-02-14T06:17:28;23.00;24.70
84114;DHT22;74483;48.846;2.358;2024-02-14T06:19:54;23.00;24.70
84114;DHT22;74483;48.846;2.358;2024-02-14T06:22:19;23.00;24.80
84114;DHT22;74483;48.846;2.358;2024-02-14T06:24:48;23.00;24.80
84114;DHT22;74483;48.846;2.358;2024-02-14T06:27:14;23.00;24.70
84114;DHT22;74483;48.846;2.358;2024-02-14T06:29:43;23.00;24.80
84114;DHT22;74483;48.846;2.358;2024-02-14T06:32:09;23.10;24.90
84114;DHT22;74483;48.846;2.358;2024-02-14T06:34:35;23.00;24.80
84114;DHT22;74483;48.846;2.358;2024-02-14T06:37:00;23.00;24.80
84114;DHT22;74483;48.846;2.358;2024-02-14T06:39:26;23.00;24.80
84114;DHT22;74483;48.846;2.358;2024-02-14T06:41:52;23.00;24.80
84114;DHT22;74483;48.846;2.358;2024-02-14T06:44:18;23.10;25.00
84114;DHT22;74483;48.846;2.358;2024-02-14T06:46:44;23.10;25.00
84114;DHT22;74483;48.846;2.358;2024-02-14T06:49:09;23.00;24.80
84114;DHT22;74483;48.846;2.358;2024-02-14T06:51:35;23.00;24.80
84114;DHT22;74483;48.846;2.358;2024-02-14T06:54:00;23.10;25.00
84114;DHT22;74483;48.846;2.358;2024-02-14T06:56:26;23.10;25.00
84114;DHT22;74483;48.846;2.358;2024-02-14T06:58:52;23.10;25.00
84114;DHT22;74483;48.846;2.358;2024-02-14T07:01:25;23.10;25.00
84114;DHT22;74483;48.846;2.358;2024-02-14T07:03:50;23.10;25.00
84114;DHT22;74483;48.846;2.358;2024-02-14T07:06:16;23.10;25.00
84114;DHT22;74483;48.846;2.358;2024-02-14T07:08:43;23.10;25.10
84114;DHT22;74483;48.846;2.358;2024-02-14T07:11:09;23.10;25.00
84114;DHT22;74483;48.846;2.358;2024-02-14T07:13:34;23.10;25.10
84114;DHT22;74483;48.846;2.358;2024-02-14T07:16:00;23.10;25.00
84114;DHT22;74483;48.846;2.358;2024-02-14T07:18:26;23.10;25.10
84114;DHT22;74483;48.846;2.358;2024-02-14T07:20:51;23.10;25.10
84114;DHT22;74483;48.846;2.358;2024-02-14T07:23:18;23.20;25.10
84114;DHT22;74483;48.846;2.358;2024-02-14T07:25:44;23.20;25.10
84114;DHT22;74483;48.846;2.358;2024-02-14T07:28:10;23.10;25.10
84114;DHT22;74483;48.846;2.358;2024-02-14T07:30:36;23.20;25.10
84114;DHT22;74483;48.846;2.358;2024-02-14T07:33:02;23.20;25.10
84114;DHT22;74483;48.846;2.358;2024-02-14T07:35:27;23.20;25.10
84114;DHT22;74483;48.846;2.358;2024-02-14T07:37:54;23.20;25.10
84114;DHT22;74483;48.846;2.358;2024-02-14T07:40:21;23.20;25.10
84114;DHT22;74483;48.846;2.358;2024-02-14T07:42:46;23.20;25.10
84114;DHT22;74483;48.846;2.358;2024-02-14T07:45:12;23.20;25.10
84114;DHT22;74483;48.846;2.358;2024-02-14T07:47:38;23.30;25.10
84114;DHT22;74483;48.846;2.358;2024-02-14T07:50:06;23.30;25.10
84114;DHT22;74483;48.846;2.358;2024-02-14T07:52:31;23.20;25.70
84114;DHT22;74483;48.846;2.358;2024-02-14T07:54:57;23.30;25.10
84114;DHT22;74483;48.846;2.358;2024-02-14T07:57:23;23.30;25.10
84114;DHT22;74483;48.846;2.358;2024-02-14T07:59:50;23.30;25.10
84114;DHT22;74483;48.846;2.358;2024-02-14T08:02:19;23.30;25.10
84114;DHT22;74483;48.846;2.358;2024-02-14T08:04:45;23.30;25.10
84114;DHT22;74483;48.846;2.358;2024-02-14T08:07:11;23.30;25.10
84114;DHT22;74483;48.846;2.358;2024-02-14T08:09:37;23.30;25.10
84114;DHT22;74483;48.846;2.358;2024-02-14T08:12:05;23.30;25.00
84114;DHT22;74483;48.846;2.358;2024-02-14T08:14:31;23.30;25.00
84114;DHT22;74483;48.846;2.358;2024-02-14T08:16:56;23.40;25.00
84114;DHT22;74483;48.846;2.358;2024-02-14T08:19:22;23.40;25.00
84114;DHT22;74483;48.846;2.358;2024-02-14T08:21:48;23.40;25.00
84114;DHT22;74483;48.846;2.358;2024-02-14T08:24:14;23.40;25.00
84114;DHT22;74483;48.846;2.358;2024-02-14T08:26:39;23.40;25.00
84114;DHT22;74483;48.846;2.358;2024-02-14T08:29:05;23.40;25.60
84114;DHT22;74483;48.846;2.358;2024-02-14T08:31:32;23.50;25.10
84114;DHT22;74483;48.846;2.358;2024-02-14T08:33:58;23.50;25.10
84114;DHT22;74483;48.846;2.358;2024-02-14T08:36:24;23.50;25.00
84114;DHT22;74483;48.846;2.358;2024-02-14T08:38:50;23.50;25.10
84114;DHT22;74483;48.846;2.358;2024-02-14T08:41:15;23.50;25.10
84114;DHT22;74483;48.846;2.358;2024-02-14T08:43:41;23.50;25.00
84114;DHT22;74483;48.846;2.358;2024-02-14T08:46:12;23.50;25.10
84114;DHT22;74483;48.846;2.358;2024-02-14T08:48:38;23.50;25.00
84114;DHT22;74483;48.846;2.358;2024-02-14T08:51:12;23.60;25.10
84114;DHT22;74483;48.846;2.358;2024-02-14T08:53:38;23.60;25.10
84114;DHT22;74483;48.846;2.358;2024-02-14T08:56:04;23.60;26.00
84114;DHT22;74483;48.846;2.358;2024-02-14T08:58:30;23.60;26.40
84114;DHT22;74483;48.846;2.358;2024-02-14T09:00:55;23.60;26.70
84114;DHT22;74483;48.846;2.358;2024-02-14T09:03:21;23.50;26.90
84114;DHT22;74483;48.846;2.358;2024-02-14T09:05:46;23.50;27.00
84114;DHT22;74483;48.846;2.358;2024-02-14T09:08:13;23.50;27.20
84114;DHT22;74483;48.846;2.358;2024-02-14T09:10:38;23.50;27.90
84114;DHT22;74483;48.846;2.358;2024-02-14T09:13:04;23.50;27.40
84114;DHT22;74483;48.846;2.358;2024-02-14T09:15:32;23.50;27.70
84114;DHT22;74483;48.846;2.358;2024-02-14T09:17:58;23.50;27.70
84114;DHT22;74483;48.846;2.358;2024-02-14T09:20:25;23.50;27.80
84114;DHT22;74483;48.846;2.358;2024-02-14T09:22:51;23.50;27.90
84114;DHT22;74483;48.846;2.358;2024-02-14T09:25:17;23.50;28.10
84114;DHT22;74483;48.846;2.358;2024-02-14T09:27:42;23.50;28.50
84114;DHT22;74483;48.846;2.358;2024-02-14T09:30:09;23.50;28.80
84114;DHT22;74483;48.846;2.358;2024-02-14T09:32:35;23.40;28.80
84114;DHT22;74483;48.846;2.358;2024-02-14T09:35:01;23.40;28.80
84114;DHT22;74483;48.846;2.358;2024-02-14T09:37:30;23.40;28.90
84114;DHT22;74483;48.846;2.358;2024-02-14T09:39:55;23.40;29.10
84114;DHT22;74483;48.846;2.358;2024-02-14T09:42:42;23.50;29.30
84114;DHT22;74483;48.846;2.358;2024-02-14T09:45:09;23.50;29.40
84114;DHT22;74483;48.846;2.358;2024-02-14T09:47:35;23.50;29.60
84114;DHT22;74483;48.846;2.358;2024-02-14T09:50:03;23.50;29.80
84114;DHT22;74483;48.846;2.358;2024-02-14T09:52:32;23.40;29.80
84114;DHT22;74483;48.846;2.358;2024-02-14T09:54:59;23.50;29.90
84114;DHT22;74483;48.846;2.358;2024-02-14T09:57:26;23.50;29.90
84114;DHT22;74483;48.846;2.358;2024-02-14T09:59:53;23.50;30.40
84114;DHT22;74483;48.846;2.358;2024-02-14T10:02:19;23.50;29.60
84114;DHT22;74483;48.846;2.358;2024-02-14T10:04:45;23.50;29.60
84114;DHT22;74483;48.846;2.358;2024-02-14T10:07:11;23.50;29.60
84114;DHT22;74483;48.846;2.358;2024-02-14T10:09:42;23.60;29.60
84114;DHT22;74483;48.846;2.358;2024-02-14T10:12:09;23.60;29.60
84114;DHT22;74483;48.846;2.358;2024-02-14T10:14:35;23.60;29.80
84114;DHT22;74483;48.846;2.358;2024-02-14T10:17:03;23.60;29.80
84114;DHT22;74483;48.846;2.358;2024-02-14T10:19:29;23.50;29.80
84114;DHT22;74483;48.846;2.358;2024-02-14T10:22:01;23.60;29.70
84114;DHT22;74483;48.846;2.358;2024-02-14T10:24:31;23.60;29.70
84114;DHT22;74483;48.846;2.358;2024-02-14T10:26:59;23.60;29.90
84114;DHT22;74483;48.846;2.358;2024-02-14T10:29:25;23.60;30.00
84114;DHT22;74483;48.846;2.358;2024-02-14T10:31:52;23.60;30.10
84114;DHT22;74483;48.846;2.358;2024-02-14T10:34:18;23.60;30.10
84114;DHT22;74483;48.846;2.358;2024-02-14T10:36:45;23.60;30.20
84114;DHT22;74483;48.846;2.358;2024-02-14T10:39:12;23.60;30.20
84114;DHT22;74483;48.846;2.358;2024-02-14T10:41:38;23.60;30.30
84114;DHT22;74483;48.846;2.358;2024-02-14T10:44:04;23.60;30.30
84114;DHT22;74483;48.846;2.358;2024-02-14T10:46:32;23.60;30.30
84114;DHT22;74483;48.846;2.358;2024-02-14T10:49:04;23.60;30.30
84114;DHT22;74483;48.846;2.358;2024-02-14T10:51:34;23.60;30.40
84114;DHT22;74483;48.846;2.358;2024-02-14T10:54:04;23.60;30.40
84114;DHT22;74483;48.846;2.358;2024-02-14T10:56:35;23.60;30.40
84114;DHT22;74483;48.846;2.358;2024-02-14T10:59:04;23.60;30.40
84114;DHT22;74483;48.846;2.358;2024-02-14T11:01:32;23.60;30.50
84114;DHT22;74483;48.846;2.358;2024-02-14T11:04:00;23.60;30.20
84114;DHT22;74483;48.846;2.358;2024-02-14T11:06:27;23.60;30.20
84114;DHT22;74483;48.846;2.358;2024-02-14T11:09:02;23.60;30.20
84114;DHT22;74483;48.846;2.358;2024-02-14T11:11:33;23.70;30.40
84114;DHT22;74483;48.846;2.358;2024-02-14T11:13:59;23.70;30.40
84114;DHT22;74483;48.846;2.358;2024-02-14T11:16:26;23.70;30.40
84114;DHT22;74483;48.846;2.358;2024-02-14T11:18:54;23.70;31.10
84114;DHT22;74483;48.846;2.358;2024-02-14T11:21:20;23.70;30.40
84114;DHT22;74483;48.846;2.358;2024-02-14T11:23:55;23.70;30.50
84114;DHT22;74483;48.846;2.358;2024-02-14T11:26:20;23.70;30.50
84114;DHT22;74483;48.846;2.358;2024-02-14T11:28:48;23.70;30.40
84114;DHT22;74483;48.846;2.358;2024-02-14T11:31:17;23.70;30.40
84114;DHT22;74483;48.846;2.358;2024-02-14T11:33:43;23.70;30.30
84114;DHT22;74483;48.846;2.358;2024-02-14T11:36:12;23.70;30.20
84114;DHT22;74483;48.846;2.358;2024-02-14T11:38:41;23.80;30.10
84114;DHT22;74483;48.846;2.358;2024-02-14T11:41:06;23.80;30.00
84114;DHT22;74483;48.846;2.358;2024-02-14T11:43:32;23.80;30.00
84114;DHT22;74483;48.846;2.358;2024-02-14T11:45:57;23.80;29.80
84114;DHT22;74483;48.846;2.358;2024-02-14T11:48:23;23.80;30.40
84114;DHT22;74483;48.846;2.358;2024-02-14T11:50:51;23.90;29.70
84114;DHT22;74483;48.846;2.358;2024-02-14T11:53:18;23.90;30.20
84114;DHT22;74483;48.846;2.358;2024-02-14T11:55:45;23.90;29.40
84114;DHT22;74483;48.846;2.358;2024-02-14T11:58:13;23.90;29.40
84114;DHT22;74483;48.846;2.358;2024-02-14T12:00:40;24.00;29.20
84114;DHT22;74483;48.846;2.358;2024-02-14T12:03:19;24.00;29.10
84114;DHT22;74483;48.846;2.358;2024-02-14T12:05:47;24.00;29.00
84114;DHT22;74483;48.846;2.358;2024-02-14T12:08:14;24.00;29.00
84114;DHT22;74483;48.846;2.358;2024-02-14T12:10:43;24.00;29.00
84114;DHT22;74483;48.846;2.358;2024-02-14T12:13:10;24.00;28.80
84114;DHT22;74483;48.846;2.358;2024-02-14T12:15:47;24.00;28.70
84114;DHT22;74483;48.846;2.358;2024-02-14T12:18:13;24.10;28.60
84114;DHT22;74483;48.846;2.358;2024-02-14T12:20:42;24.10;28.60
84114;DHT22;74483;48.846;2.358;2024-02-14T12:23:18;24.10;28.50
84114;DHT22;74483;48.846;2.358;2024-02-14T12:25:47;24.10;28.30
84114;DHT22;74483;48.846;2.358;2024-02-14T12:28:17;24.20;28.30
84114;DHT22;74483;48.846;2.358;2024-02-14T12:30:44;24.20;28.20
84114;DHT22;74483;48.846;2.358;2024-02-14T12:33:15;24.20;28.10
84114;DHT22;74483;48.846;2.358;2024-02-14T12:35:45;24.20;28.30
84114;DHT22;74483;48.846;2.358;2024-02-14T12:38:12;24.20;29.10
84114;DHT22;74483;48.846;2.358;2024-02-14T12:40:39;24.20;29.40
84114;DHT22;74483;48.846;2.358;2024-02-14T12:43:07;24.20;29.60
84114;DHT22;74483;48.846;2.358;2024-02-14T12:45:33;24.10;29.60
84114;DHT22;74483;48.846;2.358;2024-02-14T12:47:59;24.10;29.70
84114;DHT22;74483;48.846;2.358;2024-02-14T12:50:25;24.20;29.80
84114;DHT22;74483;48.846;2.358;2024-02-14T12:52:51;24.20;29.80
84114;DHT22;74483;48.846;2.358;2024-02-14T12:55:17;24.20;30.00
84114;DHT22;74483;48.846;2.358;2024-02-14T12:57:44;24.20;30.00
84114;DHT22;74483;48.846;2.358;2024-02-14T13:00:10;24.20;30.10
84114;DHT22;74483;48.846;2.358;2024-02-14T13:02:37;24.20;30.20
84114;DHT22;74483;48.846;2.358;2024-02-14T13:05:04;24.20;30.20
84114;DHT22;74483;48.846;2.358;2024-02-14T13:07:30;24.20;30.20
84114;DHT22;74483;48.846;2.358;2024-02-14T13:09:56;24.20;30.20
84114;DHT22;74483;48.846;2.358;2024-02-14T13:12:22;24.20;30.30
84114;DHT22;74483;48.846;2.358;2024-02-14T13:14:48;24.20;30.40
84114;DHT22;74483;48.846;2.358;2024-02-14T13:17:14;24.30;30.60
84114;DHT22;74483;48.846;2.358;2024-02-14T13:19:40;24.30;30.50
84114;DHT22;74483;48.846;2.358;2024-02-14T13:22:08;24.30;30.50
84114;DHT22;74483;48.846;2.358;2024-02-14T13:24:34;24.30;30.40
84114;DHT22;74483;48.846;2.358;2024-02-14T13:26:59;24.30;30.40
84114;DHT22;74483;48.846;2.358;2024-02-14T13:29:25;24.30;30.40
84114;DHT22;74483;48.846;2.358;2024-02-14T13:31:51;24.30;30.30
84114;DHT22;74483;48.846;2.358;2024-02-14T13:34:17;24.30;30.30
84114;DHT22;74483;48.846;2.358;2024-02-14T13:36:48;24.30;30.20
84114;DHT22;74483;48.846;2.358;2024-02-14T13:39:13;24.30;30.20
84114;DHT22;74483;48.846;2.358;2024-02-14T13:41:40;24.30;30.20
84114;DHT22;74483;48.846;2.358;2024-02-14T13:44:09;24.30;30.20
84114;DHT22;74483;48.846;2.358;2024-02-14T13:46:35;24.30;30.10
84114;DHT22;74483;48.846;2.358;2024-02-14T13:49:01;24.30;30.80
84114;DHT22;74483;48.846;2.358;2024-02-14T13:51:27;24.30;30.20
84114;DHT22;74483;48.846;2.358;2024-02-14T13:53:53;24.30;30.10
84114;DHT22;74483;48.846;2.358;2024-02-14T13:56:19;24.30;30.10
84114;DHT22;74483;48.846;2.358;2024-02-14T13:58:50;24.30;30.10
84114;DHT22;74483;48.846;2.358;2024-02-14T14:01:16;24.30;30.10
84114;DHT22;74483;48.846;2.358;2024-02-14T14:03:43;24.30;30.20
84114;DHT22;74483;48.846;2.358;2024-02-14T14:06:08;24.30;30.10
84114;DHT22;74483;48.846;2.358;2024-02-14T14:08:35;24.30;30.00
84114;DHT22;74483;48.846;2.358;2024-02-14T14:11:02;24.30;30.00
84114;DHT22;74483;48.846;2.358;2024-02-14T14:13:29;24.40;29.90
84114;DHT22;74483;48.846;2.358;2024-02-14T14:15:57;24.40;30.50
84114;DHT22;74483;48.846;2.358;2024-02-14T14:18:23;24.30;29.90
84114;DHT22;74483;48.846;2.358;2024-02-14T14:20:49;24.30;29.90
84114;DHT22;74483;48.846;2.358;2024-02-14T14:23:15;24.40;29.90
84114;DHT22;74483;48.846;2.358;2024-02-14T14:25:41;24.30;29.80
84114;DHT22;74483;48.846;2.358;2024-02-14T14:28:07;24.30;29.80
84114;DHT22;74483;48.846;2.358;2024-02-14T14:30:37;24.30;29.90
84114;DHT22;74483;48.846;2.358;2024-02-14T14:33:06;24.30;29.90
84114;DHT22;74483;48.846;2.358;2024-02-14T14:35:33;24.30;29.90
84114;DHT22;74483;48.846;2.358;2024-02-14T14:37:59;24.30;29.80
84114;DHT22;74483;48.846;2.358;2024-02-14T14:40:25;24.30;29.80
84114;DHT22;74483;48.846;2.358;2024-02-14T14:42:52;24.30;29.70
84114;DHT22;74483;48.846;2.358;2024-02-14T14:45:18;24.40;30.50
84114;DHT22;74483;48.846;2.358;2024-02-14T14:47:43;24.30;29.80
84114;DHT22;74483;48.846;2.358;2024-02-14T14:50:09;24.40;30.50
84114;DHT22;74483;48.846;2.358;2024-02-14T14:52:35;24.30;29.80
84114;DHT22;74483;48.846;2.358;2024-02-14T14:55:03;24.30;29.80
84114;DHT22;74483;48.846;2.358;2024-02-14T14:57:29;24.30;29.90
84114;DHT22;74483;48.846;2.358;2024-02-14T14:59:55;24.30;29.80
84114;DHT22;74483;48.846;2.358;2024-02-14T15:02:20;24.30;29.90
84114;DHT22;74483;48.846;2.358;2024-02-14T15:04:47;24.30;30.10
84114;DHT22;74483;48.846;2.358;2024-02-14T15:07:13;24.30;30.10
84114;DHT22;74483;48.846;2.358;2024-02-14T15:09:39;24.30;30.20
84114;DHT22;74483;48.846;2.358;2024-02-14T15:12:05;24.30;30.20
84114;DHT22;74483;48.846;2.358;2024-02-14T15:14:31;24.30;30.20
84114;DHT22;74483;48.846;2.358;2024-02-14T15:16:56;24.30;30.20
84114;DHT22;74483;48.846;2.358;2024-02-14T15:19:22;24.30;30.20
84114;DHT22;74483;48.846;2.358;2024-02-14T15:21:50;24.30;30.30
84114;DHT22;74483;48.846;2.358;2024-02-14T15:24:16;24.30;30.30
84114;DHT22;74483;48.846;2.358;2024-02-14T15:26:41;24.30;30.40